createdAt,value
2019-05-22T00:02:39.092Z,11.60
2019-05-22T00:05:27.178Z,11.60
2019-05-22T00:08:10.268Z,11.60
2019-05-22T00:10:53.874Z,11.60
2019-05-22T00:13:38.953Z,11.60
2019-05-22T00:16:22.118Z,11.60
2019-05-22T00:19:05.576Z,11.60
2019-05-22T00:21:49.135Z,11.60
2019-05-22T00:24:32.233Z,11.60
2019-05-22T00:27:15.439Z,11.50
2019-05-22T00:36:14.443Z,11.50
2019-05-22T00:39:00.503Z,11.50
2019-05-22T00:41:46.191Z,11.50
2019-05-22T00:44:29.379Z,11.60
2019-05-22T00:47:14.051Z,11.50
2019-05-22T00:49:56.641Z,11.50
2019-05-22T00:55:44.554Z,11.60
2019-05-22T00:58:48.112Z,11.50
2019-05-22T01:01:49.978Z,11.50
2019-05-22T01:04:34.646Z,11.50
2019-05-22T01:07:11.975Z,11.50
2019-05-22T01:10:03.902Z,11.50
2019-05-22T01:13:00.769Z,11.50
2019-05-22T01:15:42.552Z,11.50
2019-05-22T01:18:25.794Z,11.40
2019-05-22T01:21:10.257Z,11.50
2019-05-22T01:23:53.516Z,11.50
2019-05-22T01:26:37.878Z,11.50
2019-05-22T01:29:21.682Z,11.50
2019-05-22T01:35:09.120Z,11.50
2019-05-22T01:37:53.138Z,11.50
2019-05-22T01:41:05.519Z,11.50
2019-05-22T01:43:48.537Z,11.50
2019-05-22T01:46:32.079Z,11.40
2019-05-22T01:49:17.102Z,11.40
2019-05-22T01:54:46.650Z,11.40
2019-05-22T01:57:29.457Z,11.40
2019-05-22T02:00:17.123Z,11.50
2019-05-22T02:03:00.594Z,11.40
2019-05-22T02:05:43.270Z,11.40
2019-05-22T02:08:24.959Z,11.40
2019-05-22T02:11:08.921Z,11.40
2019-05-22T02:13:50.358Z,11.30
2019-05-22T02:16:33.101Z,11.30
2019-05-22T02:19:16.427Z,11.30
2019-05-22T02:21:59.626Z,11.30
2019-05-22T02:24:42.343Z,11.30
2019-05-22T02:27:26.239Z,11.30
2019-05-22T02:30:10.236Z,11.20
2019-05-22T02:32:52.535Z,11.20
2019-05-22T02:35:36.503Z,11.20
2019-05-22T02:38:18.830Z,11.20
2019-05-22T02:41:02.285Z,11.10
2019-05-22T02:43:44.115Z,11.20
2019-05-22T02:46:25.979Z,11.10
2019-05-22T02:49:09.661Z,11.10
2019-05-22T02:51:52.014Z,11.10
2019-05-22T02:54:38.043Z,11.10
2019-05-22T02:57:23.050Z,11.10
2019-05-22T03:00:07.656Z,11.00
2019-05-22T03:02:53.612Z,11.00
2019-05-22T03:05:40.136Z,11.00
2019-05-22T03:08:21.783Z,10.90
2019-05-22T03:11:03.833Z,10.90
2019-05-22T03:13:45.797Z,10.80
2019-05-22T03:16:28.175Z,10.80
2019-05-22T03:19:10.021Z,10.80
2019-05-22T03:21:52.709Z,10.80
2019-05-22T03:24:36.577Z,10.80
2019-05-22T03:27:19.063Z,10.70
2019-05-22T03:30:01.032Z,10.70
2019-05-22T03:32:44.466Z,10.70
2019-05-22T03:35:28.122Z,10.70
2019-05-22T03:38:10.628Z,10.70
2019-05-22T03:40:53.007Z,10.60
2019-05-22T03:43:35.309Z,10.60
2019-05-22T03:46:17.974Z,10.60
2019-05-22T03:48:59.504Z,10.60
2019-05-22T03:51:41.503Z,10.50
2019-05-22T03:54:24.130Z,10.60
2019-05-22T03:57:06.718Z,10.60
2019-05-22T03:59:49.176Z,10.60
2019-05-22T04:02:31.694Z,10.60
2019-05-22T04:05:14.699Z,10.60
2019-05-22T04:07:58.488Z,10.60
2019-05-22T04:10:41.376Z,10.60
2019-05-22T04:16:13.730Z,10.50
2019-05-22T04:18:57.066Z,10.50
2019-05-22T04:21:41.248Z,10.50
2019-05-22T04:24:23.467Z,10.50
2019-05-22T04:27:06.777Z,10.50
2019-05-22T04:29:48.645Z,10.50
2019-05-22T04:32:34.930Z,10.50
2019-05-22T04:35:19.346Z,10.50
2019-05-22T04:38:01.263Z,10.50
2019-05-22T04:43:34.876Z,10.50
2019-05-22T04:46:19.117Z,10.50
2019-05-22T04:49:00.565Z,10.50
2019-05-22T04:51:42.714Z,10.50
2019-05-22T04:54:13.041Z,10.50
2019-05-22T04:56:56.027Z,10.50
2019-05-22T04:59:37.702Z,10.40
2019-05-22T05:02:20.171Z,10.40
2019-05-22T05:05:05.295Z,10.40
2019-05-22T05:07:47.523Z,10.40
2019-05-22T05:10:30.500Z,10.40
2019-05-22T05:13:12.789Z,10.40
2019-05-22T05:15:54.706Z,10.40
2019-05-22T05:18:39.795Z,10.30
2019-05-22T05:21:23.710Z,10.30
2019-05-22T05:24:07.961Z,10.30
2019-05-22T05:26:54.664Z,10.30
2019-05-22T05:29:38.937Z,10.40
2019-05-22T05:32:22.024Z,10.40
2019-05-22T05:35:05.919Z,10.40
2019-05-22T05:37:48.337Z,10.40
2019-05-22T05:40:36.116Z,10.40
2019-05-22T05:43:21.824Z,10.40
2019-05-22T05:46:04.170Z,10.40
2019-05-22T05:48:47.416Z,10.40
2019-05-22T05:51:30.229Z,10.40
2019-05-22T05:57:16.003Z,10.50
2019-05-22T05:59:58.426Z,10.50
2019-05-22T06:02:55.679Z,10.50
2019-05-22T06:05:25.446Z,10.50
2019-05-22T06:08:07.138Z,10.50
2019-05-22T06:10:49.324Z,10.50
2019-05-22T06:13:32.108Z,10.60
2019-05-22T06:16:17.667Z,10.60
2019-05-22T06:18:59.686Z,10.60
2019-05-22T06:21:44.393Z,10.70
2019-05-22T06:24:28.040Z,10.70
2019-05-22T06:27:32.790Z,10.80
2019-05-22T06:30:18.033Z,10.80
2019-05-22T06:33:06.036Z,10.80
2019-05-22T06:35:48.233Z,10.80
2019-05-22T06:38:30.274Z,10.90
2019-05-22T06:41:13.655Z,10.90
2019-05-22T06:43:56.283Z,10.90
2019-05-22T06:46:38.607Z,10.80
2019-05-22T06:49:21.568Z,10.80
2019-05-22T06:52:03.119Z,10.90
2019-05-22T06:54:45.164Z,10.90
2019-05-22T06:57:45.010Z,10.90
2019-05-22T07:00:27.191Z,10.90
2019-05-22T07:03:10.602Z,10.90
2019-05-22T07:05:53.220Z,10.80
2019-05-22T07:11:05.945Z,10.90
2019-05-22T07:13:39.127Z,10.90
2019-05-22T07:16:10.237Z,11.00
2019-05-22T07:18:42.478Z,10.90
2019-05-22T07:21:13.160Z,11.00
2019-05-22T07:23:43.668Z,11.00
2019-05-22T07:26:14.202Z,10.90
2019-05-22T07:28:44.737Z,11.00
2019-05-22T07:31:15.246Z,11.00
2019-05-22T07:33:46.364Z,11.00
2019-05-22T07:36:19.467Z,11.00
2019-05-22T07:38:50.506Z,11.00
2019-05-22T07:41:21.366Z,11.00
2019-05-22T07:43:51.652Z,11.10
2019-05-22T07:46:22.846Z,11.20
2019-05-22T07:48:54.244Z,11.30
2019-05-22T07:51:25.912Z,11.30
2019-05-22T07:53:57.112Z,11.40
2019-05-22T07:56:29.111Z,11.50
2019-05-22T07:59:03.806Z,11.60
2019-05-22T08:01:35.617Z,11.60
2019-05-22T08:04:06.249Z,11.60
2019-05-22T08:06:37.000Z,11.80
2019-05-22T08:09:10.198Z,11.80
2019-05-22T08:11:40.660Z,11.80
2019-05-22T08:14:12.998Z,11.90
2019-05-22T08:16:43.440Z,11.80
2019-05-22T08:19:13.849Z,11.80
2019-05-22T08:21:44.779Z,11.80
2019-05-22T08:24:15.653Z,11.80
2019-05-22T08:26:54.319Z,11.90
2019-05-22T08:29:20.766Z,12.00
2019-05-22T08:31:53.316Z,12.10
2019-05-22T08:34:25.638Z,12.30
2019-05-22T08:36:56.638Z,12.40
2019-05-22T08:39:28.306Z,12.60
2019-05-22T08:41:58.636Z,12.70
2019-05-22T08:44:29.814Z,12.70
2019-05-22T08:47:01.393Z,12.80
2019-05-22T08:49:31.836Z,12.80
2019-05-22T08:52:02.631Z,12.90
2019-05-22T08:54:34.696Z,13.00
2019-05-22T08:57:08.651Z,13.10
2019-05-22T08:59:39.310Z,13.30
2019-05-22T09:02:11.916Z,13.30
2019-05-22T09:04:42.483Z,13.50
2019-05-22T09:07:13.035Z,13.60
2019-05-22T09:09:43.584Z,13.60
2019-05-22T09:12:14.498Z,13.60
2019-05-22T09:14:45.355Z,13.80
2019-05-22T09:17:17.937Z,14.00
2019-05-22T09:19:48.645Z,14.10
2019-05-22T09:22:19.077Z,14.20
2019-05-22T09:24:50.610Z,14.30
2019-05-22T09:27:22.288Z,14.30
2019-05-22T09:29:54.406Z,14.20
2019-05-22T09:32:37.931Z,14.20
2019-05-22T09:35:09.860Z,14.10
2019-05-22T09:37:40.594Z,14.20
2019-05-22T09:40:12.849Z,14.50
2019-05-22T09:42:43.301Z,14.60
2019-05-22T09:45:15.061Z,14.50
2019-05-22T09:47:45.592Z,14.50
2019-05-22T09:50:17.670Z,14.60
2019-05-22T09:52:57.799Z,14.80
2019-05-22T09:55:20.890Z,15.00
2019-05-22T09:57:51.427Z,15.10
2019-05-22T10:00:23.216Z,15.10
2019-05-22T10:02:54.724Z,15.20
2019-05-22T10:05:25.181Z,15.60
2019-05-22T10:08:00.912Z,15.70
2019-05-22T10:10:28.313Z,16.00
2019-05-22T10:12:58.926Z,16.00
2019-05-22T10:15:29.734Z,15.80
2019-05-22T10:18:00.746Z,15.60
2019-05-22T10:20:31.071Z,15.40
2019-05-22T10:23:14.615Z,15.40
2019-05-22T10:25:34.697Z,15.30
2019-05-22T10:28:06.434Z,15.40
2019-05-22T10:30:37.126Z,15.80
2019-05-22T10:33:08.434Z,16.20
2019-05-22T10:35:40.602Z,16.30
2019-05-22T10:38:11.061Z,16.50
2019-05-22T10:40:43.020Z,16.50
2019-05-22T10:43:13.295Z,16.50
2019-05-22T10:45:43.849Z,16.80
2019-05-22T10:48:14.375Z,16.90
2019-05-22T10:50:44.739Z,16.70
2019-05-22T10:53:30.698Z,16.60
2019-05-22T10:55:48.387Z,16.80
2019-05-22T10:58:20.253Z,17.20
2019-05-22T11:00:50.788Z,17.30
2019-05-22T11:03:21.099Z,17.30
2019-05-22T11:06:06.614Z,17.50
2019-05-22T11:08:24.655Z,17.90
2019-05-22T11:10:55.038Z,17.50
2019-05-22T11:13:25.529Z,17.50
2019-05-22T11:15:56.777Z,17.30
2019-05-22T11:18:27.738Z,17.10
2019-05-22T11:20:59.093Z,17.00
2019-05-22T11:23:29.552Z,16.90
2019-05-22T11:26:01.360Z,16.90
2019-05-22T11:28:32.570Z,16.70
2019-05-22T11:31:07.222Z,16.60
2019-05-22T11:33:40.423Z,16.60
2019-05-22T11:36:13.058Z,16.70
2019-05-22T11:38:43.834Z,16.90
2019-05-22T11:41:15.958Z,16.90
2019-05-22T11:43:46.873Z,17.00
2019-05-22T11:46:18.078Z,17.10
2019-05-22T11:48:48.810Z,17.00
2019-05-22T11:51:22.040Z,16.80
2019-05-22T11:54:08.233Z,17.00
2019-05-22T11:56:27.355Z,17.10
2019-05-22T11:58:58.963Z,17.20
2019-05-22T12:01:29.972Z,17.10
2019-05-22T12:04:01.036Z,17.10
2019-05-22T12:06:32.191Z,17.20
2019-05-22T12:09:04.372Z,17.30
2019-05-22T12:11:34.926Z,17.20
2019-05-22T12:14:07.714Z,17.10
2019-05-22T12:16:38.950Z,17.10
2019-05-22T12:19:10.354Z,17.30
2019-05-22T12:21:41.292Z,17.40
2019-05-22T12:24:25.943Z,17.50
2019-05-22T12:26:44.114Z,17.20
2019-05-22T12:29:17.164Z,17.20
2019-05-22T12:31:46.529Z,17.10
2019-05-22T12:34:18.443Z,17.00
2019-05-22T12:36:51.488Z,17.20
2019-05-22T12:39:23.543Z,17.30
2019-05-22T12:41:54.571Z,17.50
2019-05-22T12:44:25.621Z,17.70
2019-05-22T12:46:56.154Z,17.80
2019-05-22T12:49:28.835Z,17.70
2019-05-22T12:52:00.496Z,17.70
2019-05-22T12:54:45.370Z,17.80
2019-05-22T12:57:05.095Z,17.80
2019-05-22T12:59:36.048Z,18.00
2019-05-22T13:02:07.480Z,18.10
2019-05-22T13:04:38.891Z,18.30
2019-05-22T13:07:09.710Z,18.50
2019-05-22T13:09:40.911Z,18.70
2019-05-22T13:12:12.946Z,19.10
2019-05-22T13:14:43.430Z,19.30
2019-05-22T13:17:15.672Z,19.50
2019-05-22T13:19:47.939Z,19.70
2019-05-22T13:22:20.390Z,19.60
2019-05-22T13:24:50.648Z,19.60
2019-05-22T13:27:22.506Z,19.40
2019-05-22T13:29:53.800Z,19.20
2019-05-22T13:32:24.105Z,19.10
2019-05-22T13:34:55.815Z,19.10
2019-05-22T13:37:26.162Z,19.00
2019-05-22T13:39:58.396Z,19.00
2019-05-22T13:42:29.035Z,19.20
2019-05-22T13:44:59.486Z,19.20
2019-05-22T13:47:29.911Z,19.20
2019-05-22T13:50:00.619Z,19.30
2019-05-22T13:52:31.622Z,19.20
2019-05-22T13:55:02.091Z,19.20
2019-05-22T13:57:32.394Z,19.20
2019-05-22T14:00:02.787Z,19.10
2019-05-22T14:02:33.376Z,19.30
2019-05-22T14:05:03.961Z,19.40
2019-05-22T14:07:34.377Z,19.70
2019-05-22T14:10:05.443Z,19.80
2019-05-22T14:12:35.843Z,19.80
2019-05-22T14:15:06.772Z,19.70
2019-05-22T14:17:39.344Z,19.60
2019-05-22T14:20:10.671Z,19.70
2019-05-22T14:22:43.101Z,19.50
2019-05-22T14:25:14.690Z,19.30
2019-05-22T14:27:45.061Z,19.20
2019-05-22T14:30:16.355Z,19.00
2019-05-22T14:32:47.341Z,18.80
2019-05-22T14:35:19.262Z,18.70
2019-05-22T14:37:50.472Z,18.70
2019-05-22T14:40:22.402Z,18.80
2019-05-22T14:42:54.008Z,18.70
2019-05-22T14:45:24.673Z,18.60
2019-05-22T14:47:56.719Z,18.70
2019-05-22T14:50:32.648Z,18.70
2019-05-22T14:53:02.431Z,18.80
2019-05-22T14:55:34.721Z,18.90
2019-05-22T14:58:06.822Z,19.00
2019-05-22T15:00:38.958Z,19.00
2019-05-22T15:03:09.942Z,19.00
2019-05-22T15:05:40.414Z,19.00
2019-05-22T15:08:11.341Z,19.00
2019-05-22T15:10:41.905Z,19.00
2019-05-22T15:13:12.405Z,19.10
2019-05-22T15:15:42.869Z,19.00
2019-05-22T15:18:13.409Z,19.00
2019-05-22T15:21:12.012Z,18.90
2019-05-22T15:23:44.440Z,19.00
2019-05-22T15:26:14.774Z,19.10
2019-05-22T15:28:45.772Z,19.10
2019-05-22T15:31:16.605Z,19.10
2019-05-22T15:33:47.063Z,19.00
2019-05-22T15:36:20.859Z,19.20
2019-05-22T15:38:51.843Z,19.20
2019-05-22T15:41:22.210Z,19.40
2019-05-22T15:43:54.831Z,19.50
2019-05-22T15:46:27.328Z,19.70
2019-05-22T15:48:59.440Z,19.90
2019-05-22T15:51:32.857Z,20.00
2019-05-22T15:54:06.380Z,19.90
2019-05-22T15:56:40.053Z,19.80
2019-05-22T15:59:12.769Z,19.50
2019-05-22T16:01:45.707Z,19.40
2019-05-22T16:04:18.241Z,19.30
2019-05-22T16:06:50.676Z,19.10
2019-05-22T16:09:23.574Z,19.10
2019-05-22T16:12:01.730Z,19.20
2019-05-22T16:14:33.163Z,19.00
2019-05-22T16:17:05.888Z,19.00
2019-05-22T16:19:36.727Z,18.90
2019-05-22T16:22:09.255Z,18.90
2019-05-22T16:24:40.284Z,18.90
2019-05-22T16:27:14.200Z,19.00
2019-05-22T16:29:44.816Z,18.80
2019-05-22T16:32:17.709Z,18.80
2019-05-22T16:34:49.032Z,18.70
2019-05-22T16:37:20.425Z,18.70
2019-05-22T16:39:51.704Z,18.60
2019-05-22T16:42:23.254Z,18.60
2019-05-22T16:44:53.683Z,18.70
2019-05-22T16:47:26.299Z,18.70
2019-05-22T16:49:56.769Z,18.60
2019-05-22T16:52:28.595Z,18.50
2019-05-22T16:55:00.434Z,18.50
2019-05-22T16:57:32.866Z,18.50
2019-05-22T17:00:06.019Z,18.40
2019-05-22T17:02:37.839Z,18.30
2019-05-22T17:05:10.975Z,18.30
2019-05-22T17:07:42.001Z,18.30
2019-05-22T17:10:14.367Z,18.10
2019-05-22T17:12:46.486Z,18.10
2019-05-22T17:15:18.893Z,18.10
2019-05-22T17:17:49.654Z,18.10
2019-05-22T17:20:23.892Z,18.10
2019-05-22T17:22:59.212Z,18.00
2019-05-22T17:25:31.167Z,18.00
2019-05-22T17:28:02.445Z,17.90
2019-05-22T17:30:34.792Z,17.90
2019-05-22T17:33:07.013Z,17.90
2019-05-22T17:35:38.699Z,17.80
2019-05-22T17:38:10.155Z,17.80
2019-05-22T17:40:41.412Z,17.70
2019-05-22T17:43:13.405Z,17.70
2019-05-22T17:45:46.283Z,17.70
2019-05-22T17:48:18.963Z,17.60
2019-05-22T17:50:50.030Z,17.60
2019-05-22T17:53:20.847Z,17.60
2019-05-22T17:55:51.513Z,17.50
2019-05-22T17:58:25.715Z,17.50
2019-05-22T18:00:56.155Z,17.40
2019-05-22T18:03:26.783Z,17.40
2019-05-22T18:05:58.662Z,17.40
2019-05-22T18:08:29.320Z,17.30
2019-05-22T18:11:01.035Z,17.30
2019-05-22T18:13:31.957Z,17.20
2019-05-22T18:16:04.788Z,17.10
2019-05-22T18:18:36.542Z,17.10
2019-05-22T18:21:10.563Z,17.00
2019-05-22T18:23:44.607Z,16.90
2019-05-22T18:26:15.245Z,16.80
2019-05-22T18:28:45.850Z,16.80
2019-05-22T18:31:17.983Z,16.70
2019-05-22T18:33:48.644Z,16.60
2019-05-22T18:36:19.455Z,16.50
2019-05-22T18:38:49.987Z,16.40
2019-05-22T18:41:20.414Z,16.30
2019-05-22T18:43:51.217Z,16.30
2019-05-22T18:46:21.747Z,16.20
2019-05-22T18:48:52.577Z,16.10
2019-05-22T18:51:23.117Z,16.00
2019-05-22T18:53:53.695Z,15.90
2019-05-22T18:56:29.571Z,15.80
2019-05-22T18:59:01.813Z,15.70
2019-05-22T19:01:32.659Z,15.60
2019-05-22T19:04:03.467Z,15.50
2019-05-22T19:06:34.008Z,15.40
2019-05-22T19:09:09.856Z,15.40
2019-05-22T19:11:40.648Z,15.30
2019-05-22T19:14:11.258Z,15.30
2019-05-22T19:16:42.095Z,15.30
2019-05-22T19:19:14.665Z,15.30
2019-05-22T19:21:46.641Z,15.30
2019-05-22T19:24:17.135Z,15.30
2019-05-22T19:26:49.141Z,15.30
2019-05-22T19:29:19.830Z,15.30
2019-05-22T19:31:50.348Z,15.30
2019-05-22T19:34:21.318Z,15.30
2019-05-22T19:36:51.965Z,15.30
2019-05-22T19:39:24.020Z,15.30
2019-05-22T19:42:02.869Z,15.30
2019-05-22T19:44:27.348Z,15.30
2019-05-22T19:46:57.676Z,15.20
2019-05-22T19:49:29.654Z,15.20
2019-05-22T19:52:01.202Z,15.20
2019-05-22T19:54:31.553Z,15.10
2019-05-22T19:57:01.980Z,15.00
2019-05-22T19:59:33.238Z,14.90
2019-05-22T20:02:04.693Z,14.80
2019-05-22T20:04:35.676Z,14.80
2019-05-22T20:07:08.310Z,14.60
2019-05-22T20:09:39.566Z,14.50
2019-05-22T20:12:12.012Z,14.40
2019-05-22T20:14:44.709Z,14.30
2019-05-22T20:17:14.762Z,14.20
2019-05-22T20:19:46.797Z,14.10
2019-05-22T20:22:18.064Z,14.00
2019-05-22T20:24:49.106Z,13.90
2019-05-22T20:27:20.035Z,13.70
2019-05-22T20:29:50.937Z,13.60
2019-05-22T20:32:22.212Z,13.50
2019-05-22T20:34:52.860Z,13.40
2019-05-22T20:37:23.707Z,13.40
2019-05-22T20:39:54.206Z,13.30
2019-05-22T20:42:24.573Z,13.20
2019-05-22T20:44:59.329Z,13.10
2019-05-22T20:47:31.441Z,13.00
2019-05-22T20:50:04.250Z,12.90
2019-05-22T20:52:36.371Z,12.80
2019-05-22T20:55:07.614Z,12.80
2019-05-22T20:57:38.163Z,12.70
2019-05-22T21:00:10.114Z,12.70
2019-05-22T21:02:42.826Z,12.60
2019-05-22T21:05:15.558Z,12.60
2019-05-22T21:07:51.389Z,12.50
2019-05-22T21:10:24.746Z,12.50
2019-05-22T21:12:57.418Z,12.50
2019-05-22T21:15:30.914Z,12.50
2019-05-22T21:18:02.415Z,12.40
2019-05-22T21:20:33.917Z,12.40
2019-05-22T21:23:06.225Z,12.40
2019-05-22T21:25:37.306Z,12.40
2019-05-22T21:28:13.770Z,12.40
2019-05-22T21:30:45.643Z,12.40
2019-05-22T21:33:18.333Z,12.40
2019-05-22T21:35:50.091Z,12.40
2019-05-22T21:38:23.342Z,12.40
2019-05-22T21:40:56.808Z,12.40
2019-05-22T21:43:35.527Z,12.30
2019-05-22T21:46:07.838Z,12.30
2019-05-22T21:48:42.995Z,12.20
2019-05-22T21:51:14.073Z,12.20
2019-05-22T21:53:44.424Z,12.10
2019-05-22T21:56:14.907Z,12.10
2019-05-22T21:58:45.553Z,12.00
2019-05-22T22:01:28.328Z,12.00
2019-05-22T22:04:05.540Z,12.00
2019-05-22T22:06:36.200Z,11.90
2019-05-22T22:09:08.928Z,11.90
2019-05-22T22:11:42.740Z,11.90
2019-05-22T22:14:12.623Z,11.90
2019-05-22T22:16:44.902Z,11.90
2019-05-22T22:19:17.699Z,11.90
2019-05-22T22:21:49.514Z,11.90
2019-05-22T22:24:20.053Z,11.90
2019-05-22T22:26:52.186Z,11.80
2019-05-22T22:29:23.008Z,11.90
2019-05-22T22:31:55.207Z,11.80
2019-05-22T22:34:36.170Z,11.80
2019-05-22T22:37:06.855Z,11.80
2019-05-22T22:39:37.891Z,11.70
2019-05-22T22:42:10.532Z,11.60
2019-05-22T22:44:42.231Z,11.60
2019-05-22T22:47:17.886Z,11.60
2019-05-22T22:50:03.960Z,11.50
2019-05-22T22:52:35.788Z,11.50
2019-05-22T22:55:13.146Z,11.50
2019-05-22T22:57:44.793Z,11.50
2019-05-22T23:00:18.648Z,11.50
2019-05-22T23:02:49.766Z,11.40
2019-05-22T23:05:20.425Z,11.40
2019-05-22T23:07:51.264Z,11.30
2019-05-22T23:10:23.090Z,11.30
2019-05-22T23:12:55.612Z,11.30
2019-05-22T23:15:27.735Z,11.30
2019-05-22T23:18:00.319Z,11.30
2019-05-22T23:20:32.129Z,11.20
2019-05-22T23:23:01.024Z,11.20
2019-05-22T23:25:34.262Z,11.10
2019-05-22T23:28:05.638Z,11.20
2019-05-22T23:30:36.833Z,11.10
2019-05-22T23:33:08.624Z,11.10
2019-05-22T23:35:51.986Z,11.20
2019-05-22T23:38:22.416Z,11.10
2019-05-22T23:40:55.703Z,11.10
2019-05-22T23:43:27.915Z,11.10
2019-05-22T23:46:01.673Z,11.00
2019-05-22T23:48:36.114Z,11.00
2019-05-22T23:51:07.356Z,11.00
2019-05-22T23:53:39.075Z,11.00
2019-05-22T23:56:10.779Z,10.90
2019-05-22T23:58:52.408Z,10.90
